sensor_id;sensor_type;location;lat;lon;timestamp;pressure;altitude;pressure_sealevel;temperature;humidity
53651;BME280;39552;45.776;15.892;2023-01-25T00:00:51;101928.69;;;5.86;100.00
53651;BME280;39552;45.776;15.892;2023-01-25T00:03:17;101930.41;;;5.93;100.00
53651;BME280;39552;45.776;15.892;2023-01-25T00:05:44;101939.19;;;6.06;100.00
53651;BME280;39552;45.776;15.892;2023-01-25T00:08:11;101931.38;;;5.87;100.00
53651;BME280;39552;45.776;15.892;2023-01-25T00:10:38;101931.31;;;5.95;100.00
53651;BME280;39552;45.776;15.892;2023-01-25T00:13:06;101918.69;;;5.99;100.00
53651;BME280;39552;45.776;15.892;2023-01-25T00:15:33;101928.22;;;6.23;100.00
53651;BME280;39552;45.776;15.892;2023-01-25T00:18:00;101914.13;;;6.05;100.00
53651;BME280;39552;45.776;15.892;2023-01-25T00:20:32;101921.38;;;6.00;100.00
53651;BME280;39552;45.776;15.892;2023-01-25T00:22:59;101915.97;;;6.03;100.00
53651;BME280;39552;45.776;15.892;2023-01-25T00:25:26;101922.31;;;5.95;100.00
53651;BME280;39552;45.776;15.892;2023-01-25T00:27:53;101911.56;;;5.95;100.00
53651;BME280;39552;45.776;15.892;2023-01-25T00:30:21;101921.34;;;6.02;100.00
53651;BME280;39552;45.776;15.892;2023-01-25T00:32:53;101916.16;;;5.85;100.00
53651;BME280;39552;45.776;15.892;2023-01-25T00:35:29;101929.59;;;5.86;100.00
53651;BME280;39552;45.776;15.892;2023-01-25T00:38:00;101921.34;;;6.03;100.00
53651;BME280;39552;45.776;15.892;2023-01-25T00:40:28;101927.72;;;5.93;100.00
53651;BME280;39552;45.776;15.892;2023-01-25T00:42:54;101928.59;;;5.94;100.00
53651;BME280;39552;45.776;15.892;2023-01-25T00:45:26;101943.72;;;6.04;100.00
53651;BME280;39552;45.776;15.892;2023-01-25T00:47:58;101935.72;;;5.99;100.00
53651;BME280;39552;45.776;15.892;2023-01-25T00:50:26;101950.94;;;5.99;100.00
53651;BME280;39552;45.776;15.892;2023-01-25T00:52:53;101932.97;;;6.04;100.00
53651;BME280;39552;45.776;15.892;2023-01-25T00:55:20;101957.22;;;5.98;100.00
53651;BME280;39552;45.776;15.892;2023-01-25T00:57:47;101941.03;;;6.02;100.00
53651;BME280;39552;45.776;15.892;2023-01-25T01:00:15;101964.25;;;6.09;100.00
53651;BME280;39552;45.776;15.892;2023-01-25T01:02:47;101961.63;;;6.03;100.00
53651;BME280;39552;45.776;15.892;2023-01-25T01:05:19;101939.34;;;5.94;100.00
53651;BME280;39552;45.776;15.892;2023-01-25T01:10:33;101940.97;;;6.08;100.00
53651;BME280;39552;45.776;15.892;2023-01-25T01:13:01;101937.28;;;6.16;100.00
53651;BME280;39552;45.776;15.892;2023-01-25T01:15:28;101928.19;;;6.26;100.00
53651;BME280;39552;45.776;15.892;2023-01-25T01:18:08;101931.44;;;5.81;100.00
53651;BME280;39552;45.776;15.892;2023-01-25T01:20:36;101942.00;;;5.97;100.00
53651;BME280;39552;45.776;15.892;2023-01-25T01:23:29;101936.59;;;6.00;100.00
53651;BME280;39552;45.776;15.892;2023-01-25T01:26:18;101922.31;;;5.95;100.00
53651;BME280;39552;45.776;15.892;2023-01-25T01:29:02;101913.47;;;5.85;100.00
53651;BME280;39552;45.776;15.892;2023-01-25T01:31:35;101916.94;;;5.99;100.00
53651;BME280;39552;45.776;15.892;2023-01-25T01:34:22;101922.19;;;6.05;100.00
53651;BME280;39552;45.776;15.892;2023-01-25T01:36:57;101901.56;;;6.09;100.00
53651;BME280;39552;45.776;15.892;2023-01-25T01:40:16;101906.81;;;6.18;100.00
53651;BME280;39552;45.776;15.892;2023-01-25T01:42:56;101909.41;;;6.24;100.00
53651;BME280;39552;45.776;15.892;2023-01-25T01:46:10;101899.94;;;5.94;100.00
53651;BME280;39552;45.776;15.892;2023-01-25T01:52:52;101895.53;;;5.90;100.00
53651;BME280;39552;45.776;15.892;2023-01-25T01:55:42;101903.38;;;6.08;100.00
53651;BME280;39552;45.776;15.892;2023-01-25T01:58:24;101907.66;;;6.20;100.00
53651;BME280;39552;45.776;15.892;2023-01-25T02:00:51;101903.25;;;6.16;100.00
53651;BME280;39552;45.776;15.892;2023-01-25T02:03:18;101913.31;;;6.00;100.00
53651;BME280;39552;45.776;15.892;2023-01-25T02:05:51;101892.81;;;5.93;100.00
53651;BME280;39552;45.776;15.892;2023-01-25T02:08:22;101908.81;;;6.02;100.00
53651;BME280;39552;45.776;15.892;2023-01-25T02:10:50;101917.72;;;6.04;100.00
53651;BME280;39552;45.776;15.892;2023-01-25T02:13:25;101901.75;;;5.92;100.00
53651;BME280;39552;45.776;15.892;2023-01-25T02:15:53;101903.44;;;6.02;100.00
53651;BME280;39552;45.776;15.892;2023-01-25T02:18:21;101904.44;;;5.95;100.00
53651;BME280;39552;45.776;15.892;2023-01-25T02:37:03;101892.75;;;5.99;100.00
53651;BME280;39552;45.776;15.892;2023-01-25T02:39:44;101896.41;;;5.89;100.00
53651;BME280;39552;45.776;15.892;2023-01-25T02:42:40;101894.47;;;6.05;100.00
53651;BME280;39552;45.776;15.892;2023-01-25T02:45:13;101892.81;;;5.93;100.00
53651;BME280;39552;45.776;15.892;2023-01-25T02:47:42;101893.66;;;5.97;100.00
53651;BME280;39552;45.776;15.892;2023-01-25T02:50:10;101886.41;;;6.05;100.00
53651;BME280;39552;45.776;15.892;2023-01-25T03:04:40;101893.47;;;6.10;100.00
53651;BME280;39552;45.776;15.892;2023-01-25T03:07:16;101887.16;;;6.15;100.00
53651;BME280;39552;45.776;15.892;2023-01-25T03:09:58;101876.53;;;6.04;100.00
53651;BME280;39552;45.776;15.892;2023-01-25T03:12:46;101886.13;;;6.22;100.00
53651;BME280;39552;45.776;15.892;2023-01-25T03:15:14;101883.59;;;6.13;100.00
53651;BME280;39552;45.776;15.892;2023-01-25T03:17:46;101888.09;;;6.10;100.00
53651;BME280;39552;45.776;15.892;2023-01-25T03:20:32;101889.72;;;6.22;100.00
53651;BME280;39552;45.776;15.892;2023-01-25T03:23:00;101882.88;;;6.01;100.00
53651;BME280;39552;45.776;15.892;2023-01-25T03:25:30;101886.22;;;6.14;100.00
53651;BME280;39552;45.776;15.892;2023-01-25T03:27:58;101902.19;;;6.28;100.00
53651;BME280;39552;45.776;15.892;2023-01-25T03:30:25;101889.78;;;6.18;100.00
53651;BME280;39552;45.776;15.892;2023-01-25T03:32:52;101887.16;;;6.15;100.00
53651;BME280;39552;45.776;15.892;2023-01-25T03:35:19;101895.22;;;6.15;100.00
53651;BME280;39552;45.776;15.892;2023-01-25T03:37:50;101890.06;;;5.99;100.00
53651;BME280;39552;45.776;15.892;2023-01-25T03:40:17;101892.75;;;5.99;100.00
53651;BME280;39552;45.776;15.892;2023-01-25T03:42:45;101889.16;;;5.99;100.00
53651;BME280;39552;45.776;15.892;2023-01-25T03:45:20;101907.13;;;5.92;100.00
53651;BME280;39552;45.776;15.892;2023-01-25T03:47:47;101898.28;;;5.84;100.00
53651;BME280;39552;45.776;15.892;2023-01-25T03:50:17;101889.16;;;5.99;100.00
53651;BME280;39552;45.776;15.892;2023-01-25T03:52:47;101891.88;;;5.97;100.00
53651;BME280;39552;45.776;15.892;2023-01-25T03:55:17;101891.09;;;5.87;100.00
53651;BME280;39552;45.776;15.892;2023-01-25T03:57:50;101897.34;;;5.86;100.00
53651;BME280;39552;45.776;15.892;2023-01-25T04:01:05;101891.97;;;5.88;100.00
53651;BME280;39552;45.776;15.892;2023-01-25T04:04:07;101904.06;;;6.21;100.00
53651;BME280;39552;45.776;15.892;2023-01-25T04:16:14;101874.69;;;6.09;100.00
53651;BME280;39552;45.776;15.892;2023-01-25T04:22:26;101874.56;;;6.17;100.00
53651;BME280;39552;45.776;15.892;2023-01-25T04:24:54;101890.47;;;6.32;100.00
53651;BME280;39552;45.776;15.892;2023-01-25T04:27:22;101893.25;;;6.24;100.00
53651;BME280;39552;45.776;15.892;2023-01-25T04:29:49;101896.31;;;6.00;100.00
53651;BME280;39552;45.776;15.892;2023-01-25T04:51:57;101898.03;;;6.05;100.00
53651;BME280;39552;45.776;15.892;2023-01-25T04:54:39;101890.03;;;6.01;100.00
53651;BME280;39552;45.776;15.892;2023-01-25T04:57:45;101883.06;;;5.84;100.00
53651;BME280;39552;45.776;15.892;2023-01-25T05:04:10;101865.09;;;5.88;100.00
53651;BME280;39552;45.776;15.892;2023-01-25T05:27:03;101863.97;;;6.06;100.00
53651;BME280;39552;45.776;15.892;2023-01-25T05:29:42;101879.19;;;6.08;100.00
53651;BME280;39552;45.776;15.892;2023-01-25T05:32:12;101885.44;;;6.09;100.00
53651;BME280;39552;45.776;15.892;2023-01-25T05:34:49;101884.38;;;6.19;100.00
53651;BME280;39552;45.776;15.892;2023-01-25T05:37:19;101883.53;;;6.14;100.00
53651;BME280;39552;45.776;15.892;2023-01-25T05:40:34;101882.97;;;5.90;100.00
53651;BME280;39552;45.776;15.892;2023-01-25T05:43:20;101872.97;;;6.05;100.00
53651;BME280;39552;45.776;15.892;2023-01-25T05:46:10;101876.69;;;5.93;100.00
53651;BME280;39552;45.776;15.892;2023-01-25T05:48:59;101881.09;;;5.99;100.00
53651;BME280;39552;45.776;15.892;2023-01-25T05:51:30;101878.25;;;6.09;100.00
53651;BME280;39552;45.776;15.892;2023-01-25T05:54:13;101884.59;;;6.05;100.00
53651;BME280;39552;45.776;15.892;2023-01-25T05:56:51;101883.59;;;6.13;100.00
53651;BME280;39552;45.776;15.892;2023-01-25T05:59:36;101882.78;;;6.06;100.00
53651;BME280;39552;45.776;15.892;2023-01-25T06:02:22;101873.00;;;6.02;100.00
53651;BME280;39552;45.776;15.892;2023-01-25T06:08:02;101885.47;;;6.06;100.00
53651;BME280;39552;45.776;15.892;2023-01-25T06:10:32;101885.47;;;6.06;100.00
53651;BME280;39552;45.776;15.892;2023-01-25T06:12:59;101889.16;;;5.99;100.00
53651;BME280;39552;45.776;15.892;2023-01-25T06:15:30;101880.22;;;5.98;100.00
53651;BME280;39552;45.776;15.892;2023-01-25T06:18:00;101878.38;;;6.02;100.00
53651;BME280;39552;45.776;15.892;2023-01-25T06:20:27;101875.59;;;6.06;100.00
53651;BME280;39552;45.776;15.892;2023-01-25T06:25:36;101879.19;;;6.07;100.00
53651;BME280;39552;45.776;15.892;2023-01-25T06:28:04;101883.63;;;6.09;100.00
53651;BME280;39552;45.776;15.892;2023-01-25T06:30:32;101863.19;;;6.01;100.00
53651;BME280;39552;45.776;15.892;2023-01-25T06:32:59;101884.63;;;6.02;100.00
53651;BME280;39552;45.776;15.892;2023-01-25T06:35:27;101879.34;;;5.96;100.00
53651;BME280;39552;45.776;15.892;2023-01-25T06:37:54;101887.19;;;6.10;100.00
53651;BME280;39552;45.776;15.892;2023-01-25T06:40:30;101863.22;;;5.96;100.00
53651;BME280;39552;45.776;15.892;2023-01-25T06:43:05;101865.03;;;5.93;100.00
53651;BME280;39552;45.776;15.892;2023-01-25T06:45:33;101864.97;;;5.99;100.00
53651;BME280;39552;45.776;15.892;2023-01-25T06:48:00;101855.91;;;6.07;100.00
53651;BME280;39552;45.776;15.892;2023-01-25T06:50:27;101871.38;;;5.87;100.00
53651;BME280;39552;45.776;15.892;2023-01-25T06:52:55;101854.03;;;6.13;100.00
53651;BME280;39552;45.776;15.892;2023-01-25T06:55:22;101864.84;;;6.08;100.00
53651;BME280;39552;45.776;15.892;2023-01-25T06:57:58;101859.56;;;6.00;100.00
53651;BME280;39552;45.776;15.892;2023-01-25T07:00:26;101871.94;;;6.12;100.00
53651;BME280;39552;45.776;15.892;2023-01-25T07:02:54;101879.88;;;6.20;100.00
53651;BME280;39552;45.776;15.892;2023-01-25T07:05:21;101869.34;;;6.07;100.00
53651;BME280;39552;45.776;15.892;2023-01-25T07:07:48;101858.25;;;6.27;100.00
53651;BME280;39552;45.776;15.892;2023-01-25T07:10:15;101866.41;;;6.23;100.00
53651;BME280;39552;45.776;15.892;2023-01-25T07:12:42;101855.03;;;6.05;100.00
53651;BME280;39552;45.776;15.892;2023-01-25T07:15:09;101850.59;;;6.03;100.00
53651;BME280;39552;45.776;15.892;2023-01-25T07:17:36;101858.44;;;6.18;100.00
53651;BME280;39552;45.776;15.892;2023-01-25T07:20:07;101866.19;;;6.35;100.00
53651;BME280;39552;45.776;15.892;2023-01-25T07:22:34;101857.41;;;6.25;100.00
53651;BME280;39552;45.776;15.892;2023-01-25T07:25:01;101856.53;;;6.23;100.00
53651;BME280;39552;45.776;15.892;2023-01-25T07:27:31;101861.78;;;6.31;100.00
53651;BME280;39552;45.776;15.892;2023-01-25T07:29:58;101850.94;;;6.37;100.00
53651;BME280;39552;45.776;15.892;2023-01-25T07:32:25;101861.75;;;6.34;100.00
53651;BME280;39552;45.776;15.892;2023-01-25T07:34:52;101848.25;;;6.37;100.00
53651;BME280;39552;45.776;15.892;2023-01-25T07:37:23;101855.69;;;6.21;100.00
53651;BME280;39552;45.776;15.892;2023-01-25T07:39:50;101859.09;;;6.33;100.00
53651;BME280;39552;45.776;15.892;2023-01-25T07:42:17;101860.69;;;6.44;100.00
53651;BME280;39552;45.776;15.892;2023-01-25T07:44:44;101843.81;;;6.36;100.00
53651;BME280;39552;45.776;15.892;2023-01-25T07:47:11;101842.94;;;6.34;100.00
53651;BME280;39552;45.776;15.892;2023-01-25T07:49:38;101850.16;;;6.32;100.00
53651;BME280;39552;45.776;15.892;2023-01-25T07:52:05;101841.94;;;6.41;100.00
53651;BME280;39552;45.776;15.892;2023-01-25T07:54:33;101842.56;;;6.57;100.00
53651;BME280;39552;45.776;15.892;2023-01-25T07:57:00;101850.63;;;6.56;100.00
53651;BME280;39552;45.776;15.892;2023-01-25T07:59:27;101848.84;;;6.55;100.00
53651;BME280;39552;45.776;15.892;2023-01-25T08:01:54;101851.41;;;6.62;100.00
53651;BME280;39552;45.776;15.892;2023-01-25T08:04:20;101845.25;;;6.56;100.00
53651;BME280;39552;45.776;15.892;2023-01-25T08:06:47;101863.03;;;6.64;100.00
53651;BME280;39552;45.776;15.892;2023-01-25T08:09:16;101860.38;;;6.63;100.00
53651;BME280;39552;45.776;15.892;2023-01-25T08:11:47;101853.31;;;6.56;100.00
53651;BME280;39552;45.776;15.892;2023-01-25T08:14:16;101853.16;;;6.66;100.00
53651;BME280;39552;45.776;15.892;2023-01-25T08:16:50;101849.78;;;6.54;100.00
53651;BME280;39552;45.776;15.892;2023-01-25T08:19:18;101852.50;;;6.52;100.00
53651;BME280;39552;45.776;15.892;2023-01-25T08:21:45;101838.06;;;6.56;100.00
53651;BME280;39552;45.776;15.892;2023-01-25T08:24:12;101845.97;;;6.67;100.00
53651;BME280;39552;45.776;15.892;2023-01-25T08:26:42;101839.03;;;6.52;100.00
53651;BME280;39552;45.776;15.892;2023-01-25T08:29:13;101831.44;;;6.76;100.00
53651;BME280;39552;45.776;15.892;2023-01-25T08:31:41;101849.25;;;6.83;100.00
53651;BME280;39552;45.776;15.892;2023-01-25T08:34:09;101836.19;;;6.63;100.00
53651;BME280;39552;45.776;15.892;2023-01-25T08:36:36;101833.13;;;6.81;100.00
53651;BME280;39552;45.776;15.892;2023-01-25T08:39:05;101835.41;;;6.55;100.00
53651;BME280;39552;45.776;15.892;2023-01-25T08:41:34;101846.28;;;6.48;100.00
53651;BME280;39552;45.776;15.892;2023-01-25T08:44:01;101839.19;;;6.93;100.00
53651;BME280;39552;45.776;15.892;2023-01-25T08:46:31;101831.41;;;6.77;100.00
53651;BME280;39552;45.776;15.892;2023-01-25T08:48:59;101844.94;;;6.74;100.00
53651;BME280;39552;45.776;15.892;2023-01-25T08:51:27;101837.66;;;6.79;100.00
53651;BME280;39552;45.776;15.892;2023-01-25T08:53:54;101837.22;;;6.54;100.00
53651;BME280;39552;45.776;15.892;2023-01-25T08:56:20;101834.22;;;6.71;100.00
53651;BME280;39552;45.776;15.892;2023-01-25T08:58:48;101840.34;;;6.79;100.00
53651;BME280;39552;45.776;15.892;2023-01-25T09:01:17;101843.59;;;6.47;100.00
53651;BME280;39552;45.776;15.892;2023-01-25T09:03:46;101842.69;;;6.49;100.00
53651;BME280;39552;45.776;15.892;2023-01-25T09:06:14;101856.13;;;6.49;100.00
53651;BME280;39552;45.776;15.892;2023-01-25T09:08:42;101836.44;;;6.49;100.00
53651;BME280;39552;45.776;15.892;2023-01-25T09:11:13;101835.31;;;6.61;100.00
53651;BME280;39552;45.776;15.892;2023-01-25T09:13:40;101852.44;;;6.57;100.00
53651;BME280;39552;45.776;15.892;2023-01-25T09:16:09;101843.31;;;6.64;100.00
53651;BME280;39552;45.776;15.892;2023-01-25T09:18:37;101841.75;;;6.50;100.00
53651;BME280;39552;45.776;15.892;2023-01-25T09:21:06;101837.06;;;6.63;100.00
53651;BME280;39552;45.776;15.892;2023-01-25T09:23:33;101845.94;;;6.68;100.00
53651;BME280;39552;45.776;15.892;2023-01-25T09:26:16;101837.16;;;6.57;100.00
53651;BME280;39552;45.776;15.892;2023-01-25T09:28:45;101835.13;;;6.70;100.00
53651;BME280;39552;45.776;15.892;2023-01-25T09:31:13;101835.19;;;6.68;100.00
53651;BME280;39552;45.776;15.892;2023-01-25T09:33:49;101846.53;;;6.86;100.00
53651;BME280;39552;45.776;15.892;2023-01-25T09:36:17;101845.66;;;6.84;100.00
53651;BME280;39552;45.776;15.892;2023-01-25T09:38:44;101833.22;;;6.78;100.00
53651;BME280;39552;45.776;15.892;2023-01-25T09:41:24;101845.16;;;7.10;100.00
53651;BME280;39552;45.776;15.892;2023-01-25T09:44:06;101828.97;;;7.12;100.00
53651;BME280;39552;45.776;15.892;2023-01-25T09:46:42;101837.75;;;7.21;100.00
53651;BME280;39552;45.776;15.892;2023-01-25T09:49:29;101828.41;;;6.96;100.00
53651;BME280;39552;45.776;15.892;2023-01-25T09:52:18;101829.44;;;6.87;100.00
53651;BME280;39552;45.776;15.892;2023-01-25T09:54:52;101833.66;;;7.02;100.00
53651;BME280;39552;45.776;15.892;2023-01-25T09:57:23;101827.03;;;6.73;100.00
53651;BME280;39552;45.776;15.892;2023-01-25T09:59:52;101819.94;;;6.69;100.00
53651;BME280;39552;45.776;15.892;2023-01-25T10:02:32;101825.44;;;6.61;100.00
53651;BME280;39552;45.776;15.892;2023-01-25T10:05:05;101815.25;;;6.79;100.00
53651;BME280;39552;45.776;15.892;2023-01-25T10:07:46;101812.38;;;6.41;100.00
53651;BME280;39552;45.776;15.892;2023-01-25T10:10:17;101815.31;;;6.76;100.00
53651;BME280;39552;45.776;15.892;2023-01-25T10:12:46;101809.91;;;6.77;100.00
53651;BME280;39552;45.776;15.892;2023-01-25T10:15:18;101801.34;;;6.57;100.00
53651;BME280;39552;45.776;15.892;2023-01-25T10:17:48;101799.09;;;6.80;100.00
53651;BME280;39552;45.776;15.892;2023-01-25T10:20:26;101788.94;;;6.95;100.00
53651;BME280;39552;45.776;15.892;2023-01-25T10:23:22;101782.41;;;6.63;100.00
53651;BME280;39552;45.776;15.892;2023-01-25T10:25:56;101786.56;;;6.79;100.00
53651;BME280;39552;45.776;15.892;2023-01-25T10:28:35;101787.38;;;6.83;100.00
53651;BME280;39552;45.776;15.892;2023-01-25T10:31:18;101767.31;;;6.54;100.00
53651;BME280;39552;45.776;15.892;2023-01-25T10:33:47;101761.16;;;6.49;100.00
53651;BME280;39552;45.776;15.892;2023-01-25T10:36:15;101769.44;;;6.83;100.00
53651;BME280;39552;45.776;15.892;2023-01-25T10:38:46;101771.25;;;6.83;100.00
53651;BME280;39552;45.776;15.892;2023-01-25T10:41:18;101761.34;;;6.85;100.00
53651;BME280;39552;45.776;15.892;2023-01-25T10:43:47;101746.94;;;6.87;100.00
53651;BME280;39552;45.776;15.892;2023-01-25T10:46:18;101736.69;;;6.63;100.00
53651;BME280;39552;45.776;15.892;2023-01-25T10:48:45;101741.50;;;6.45;100.00
53651;BME280;39552;45.776;15.892;2023-01-25T10:51:28;101728.50;;;6.21;100.00
53651;BME280;39552;45.776;15.892;2023-01-25T10:54:00;101740.16;;;6.68;100.00
53651;BME280;39552;45.776;15.892;2023-01-25T10:56:29;101740.84;;;6.78;100.00
53651;BME280;39552;45.776;15.892;2023-01-25T10:59:06;101719.91;;;6.48;100.00
53651;BME280;39552;45.776;15.892;2023-01-25T11:01:35;101709.94;;;6.55;100.00
53651;BME280;39552;45.776;15.892;2023-01-25T11:04:23;101713.47;;;6.59;100.00
53651;BME280;39552;45.776;15.892;2023-01-25T11:06:50;101725.13;;;6.58;100.00
53651;BME280;39552;45.776;15.892;2023-01-25T11:09:37;101697.09;;;6.23;100.00
53651;BME280;39552;45.776;15.892;2023-01-25T11:12:26;101712.22;;;6.30;100.00
53651;BME280;39552;45.776;15.892;2023-01-25T11:22:24;101697.78;;;6.34;100.00
53651;BME280;39552;45.776;15.892;2023-01-25T11:25:27;101674.91;;;6.58;100.00
53651;BME280;39552;45.776;15.892;2023-01-25T11:28:15;101676.28;;;6.34;100.00
53651;BME280;39552;45.776;15.892;2023-01-25T11:30:42;101684.50;;;6.26;100.00
53651;BME280;39552;45.776;15.892;2023-01-25T11:33:10;101676.34;;;6.31;100.00
53651;BME280;39552;45.776;15.892;2023-01-25T11:35:48;101673.88;;;6.20;100.00
53651;BME280;39552;45.776;15.892;2023-01-25T11:38:43;101678.84;;;6.42;100.00
53651;BME280;39552;45.776;15.892;2023-01-25T11:41:19;101668.53;;;6.19;100.00
53651;BME280;39552;45.776;15.892;2023-01-25T11:44:01;101646.00;;;6.26;100.00
53651;BME280;39552;45.776;15.892;2023-01-25T11:46:42;101649.25;;;6.42;100.00
53651;BME280;39552;45.776;15.892;2023-01-25T11:49:20;101638.97;;;6.19;100.00
53651;BME280;39552;45.776;15.892;2023-01-25T11:52:17;101616.94;;;6.85;100.00
53651;BME280;39552;45.776;15.892;2023-01-25T11:54:58;101634.63;;;6.57;100.00
53651;BME280;39552;45.776;15.892;2023-01-25T11:57:44;101634.63;;;6.57;100.00
53651;BME280;39552;45.776;15.892;2023-01-25T12:00:34;101618.13;;;6.72;100.00
53651;BME280;39552;45.776;15.892;2023-01-25T12:03:23;101616.50;;;6.66;100.00
53651;BME280;39552;45.776;15.892;2023-01-25T12:06:02;101612.53;;;6.41;100.00
53651;BME280;39552;45.776;15.892;2023-01-25T12:08:46;101609.13;;;6.33;100.00
53651;BME280;39552;45.776;15.892;2023-01-25T12:11:40;101604.06;;;6.16;100.00
53651;BME280;39552;45.776;15.892;2023-01-25T12:14:18;101619.91;;;6.31;100.00
53651;BME280;39552;45.776;15.892;2023-01-25T12:17:00;101602.03;;;6.30;100.00
53651;BME280;39552;45.776;15.892;2023-01-25T12:19:39;101615.91;;;6.50;100.00
53651;BME280;39552;45.776;15.892;2023-01-25T12:22:22;101620.53;;;6.44;100.00
53651;BME280;39552;45.776;15.892;2023-01-25T12:24:58;101599.47;;;6.22;100.00
53651;BME280;39552;45.776;15.892;2023-01-25T12:27:37;101612.25;;;6.55;100.00
53651;BME280;39552;45.776;15.892;2023-01-25T12:30:22;101588.19;;;6.48;100.00
53651;BME280;39552;45.776;15.892;2023-01-25T12:32:54;101599.53;;;6.63;100.00
53651;BME280;39552;45.776;15.892;2023-01-25T12:35:41;101589.16;;;6.44;100.00
53651;BME280;39552;45.776;15.892;2023-01-25T12:38:14;101582.03;;;6.43;100.00
53651;BME280;39552;45.776;15.892;2023-01-25T12:40:47;101592.47;;;6.59;100.00
53651;BME280;39552;45.776;15.892;2023-01-25T12:43:22;101590.84;;;6.50;100.00
53651;BME280;39552;45.776;15.892;2023-01-25T12:46:12;101602.53;;;6.49;100.00
53651;BME280;39552;45.776;15.892;2023-01-25T12:48:43;101595.00;;;6.23;100.00
53651;BME280;39552;45.776;15.892;2023-01-25T12:51:35;101571.75;;;6.20;100.00
53651;BME280;39552;45.776;15.892;2023-01-25T12:54:05;101579.69;;;6.26;100.00
53651;BME280;39552;45.776;15.892;2023-01-25T12:56:40;101557.22;;;6.29;100.00
53651;BME280;39552;45.776;15.892;2023-01-25T12:59:14;101571.34;;;6.40;100.00
53651;BME280;39552;45.776;15.892;2023-01-25T13:01:49;101571.34;;;6.39;100.00
53651;BME280;39552;45.776;15.892;2023-01-25T13:04:40;101563.97;;;6.48;100.00
53651;BME280;39552;45.776;15.892;2023-01-25T13:07:15;101560.41;;;6.48;100.00
53651;BME280;39552;45.776;15.892;2023-01-25T13:09:52;101561.44;;;6.42;100.00
53651;BME280;39552;45.776;15.892;2023-01-25T13:12:49;101573.13;;;6.41;100.00
53651;BME280;39552;45.776;15.892;2023-01-25T13:15:39;101573.84;;;6.49;100.00
53651;BME280;39552;45.776;15.892;2023-01-25T13:18:32;101551.69;;;6.37;100.00
53651;BME280;39552;45.776;15.892;2023-01-25T13:24:27;101563.06;;;6.51;100.00
53651;BME280;39552;45.776;15.892;2023-01-25T13:27:02;101549.00;;;6.37;100.00
53651;BME280;39552;45.776;15.892;2023-01-25T13:29:59;101553.59;;;6.32;100.00
53651;BME280;39552;45.776;15.892;2023-01-25T13:32:54;101564.00;;;6.47;100.00
53651;BME280;39552;45.776;15.892;2023-01-25T13:35:31;101545.47;;;6.35;100.00
53651;BME280;39552;45.776;15.892;2023-01-25T13:38:23;101542.63;;;6.42;100.00
53651;BME280;39552;45.776;15.892;2023-01-25T13:41:14;101558.00;;;6.76;100.00
53651;BME280;39552;45.776;15.892;2023-01-25T13:43:46;101555.00;;;6.49;100.00
53651;BME280;39552;45.776;15.892;2023-01-25T13:46:23;101539.88;;;6.45;100.00
53651;BME280;39552;45.776;15.892;2023-01-25T13:49:02;101551.34;;;6.54;100.00
53651;BME280;39552;45.776;15.892;2023-01-25T13:51:33;101556.47;;;6.64;100.00
53651;BME280;39552;45.776;15.892;2023-01-25T13:54:02;101549.22;;;6.68;100.00
53651;BME280;39552;45.776;15.892;2023-01-25T13:56:32;101542.81;;;6.74;100.00
53651;BME280;39552;45.776;15.892;2023-01-25T13:58:59;101535.69;;;6.73;100.00
53651;BME280;39552;45.776;15.892;2023-01-25T14:01:28;101534.69;;;6.77;100.00
53651;BME280;39552;45.776;15.892;2023-01-25T14:06:28;101539.53;;;6.61;100.00
53651;BME280;39552;45.776;15.892;2023-01-25T14:08:59;101532.78;;;6.82;100.00
53651;BME280;39552;45.776;15.892;2023-01-25T14:11:42;101530.00;;;6.85;100.00
53651;BME280;39552;45.776;15.892;2023-01-25T14:14:18;101525.78;;;6.73;100.00
53651;BME280;39552;45.776;15.892;2023-01-25T14:16:45;101536.91;;;6.58;100.00
53651;BME280;39552;45.776;15.892;2023-01-25T14:19:20;101521.31;;;6.72;100.00
53651;BME280;39552;45.776;15.892;2023-01-25T14:22:12;101526.28;;;6.52;100.00
53651;BME280;39552;45.776;15.892;2023-01-25T14:25:01;101526.19;;;6.56;100.00
53651;BME280;39552;45.776;15.892;2023-01-25T14:27:29;101535.41;;;6.44;100.00
53651;BME280;39552;45.776;15.892;2023-01-25T14:29:56;101530.16;;;6.38;100.00
53651;BME280;39552;45.776;15.892;2023-01-25T14:32:25;101524.97;;;6.30;100.00
53651;BME280;39552;45.776;15.892;2023-01-25T14:34:52;101523.41;;;6.19;100.00
53651;BME280;39552;45.776;15.892;2023-01-25T14:37:20;101532.38;;;6.18;100.00
53651;BME280;39552;45.776;15.892;2023-01-25T14:39:50;101509.91;;;6.22;100.00
53651;BME280;39552;45.776;15.892;2023-01-25T14:42:17;101530.91;;;6.45;100.00
53651;BME280;39552;45.776;15.892;2023-01-25T14:44:44;101517.28;;;6.12;100.00
53651;BME280;39552;45.776;15.892;2023-01-25T14:47:35;101517.44;;;6.46;100.00
53651;BME280;39552;45.776;15.892;2023-01-25T14:50:37;101527.03;;;6.58;100.00
53651;BME280;39552;45.776;15.892;2023-01-25T14:53:15;101514.97;;;6.76;100.00
53651;BME280;39552;45.776;15.892;2023-01-25T14:55:47;101505.34;;;6.66;100.00
53651;BME280;39552;45.776;15.892;2023-01-25T14:58:16;101517.41;;;6.48;100.00
53651;BME280;39552;45.776;15.892;2023-01-25T15:00:51;101509.38;;;6.46;100.00
53651;BME280;39552;45.776;15.892;2023-01-25T15:03:18;101505.19;;;6.33;100.00
53651;BME280;39552;45.776;15.892;2023-01-25T15:05:46;101501.13;;;6.54;100.00
53651;BME280;39552;45.776;15.892;2023-01-25T15:08:28;101507.25;;;6.61;100.00